createdAt,value
2017-07-18T00:01:46.158Z,13.70
2017-07-18T00:04:14.585Z,13.70
2017-07-18T00:06:43.026Z,13.80
2017-07-18T00:09:11.434Z,13.90
2017-07-18T00:11:39.930Z,14.00
2017-07-18T00:14:09.111Z,14.10
2017-07-18T00:16:37.510Z,14.20
2017-07-18T00:19:05.966Z,14.30
2017-07-18T00:21:34.370Z,14.30
2017-07-18T00:24:02.774Z,14.40
2017-07-18T00:26:31.974Z,14.60
2017-07-18T00:29:00.379Z,14.50
2017-07-18T00:31:28.802Z,14.60
2017-07-18T00:33:57.216Z,14.60
2017-07-18T00:36:26.398Z,14.70
2017-07-18T00:38:54.797Z,14.70
2017-07-18T00:41:23.212Z,14.70
2017-07-18T00:43:51.653Z,14.80
2017-07-18T00:46:20.073Z,14.70
2017-07-18T00:48:48.485Z,14.70
2017-07-18T00:51:16.881Z,14.70
2017-07-18T00:53:46.094Z,14.80
2017-07-18T00:56:15.298Z,14.70
2017-07-18T00:58:43.713Z,14.70
2017-07-18T01:01:12.120Z,14.80
2017-07-18T01:03:40.721Z,14.80
2017-07-18T01:06:09.128Z,14.70
2017-07-18T01:08:37.531Z,14.70
2017-07-18T01:11:05.967Z,14.60
2017-07-18T01:13:34.365Z,14.60
2017-07-18T01:16:02.783Z,14.50
2017-07-18T01:18:31.208Z,14.50
2017-07-18T01:20:59.610Z,14.50
2017-07-18T01:23:28.016Z,14.50
2017-07-18T01:25:56.906Z,14.50
2017-07-18T01:28:25.349Z,14.50
2017-07-18T01:30:53.805Z,14.50
2017-07-18T01:33:22.245Z,14.50
2017-07-18T01:35:50.643Z,14.50
2017-07-18T01:38:18.707Z,14.50
2017-07-18T01:40:47.246Z,14.50
2017-07-18T01:43:15.656Z,14.50
2017-07-18T01:45:44.060Z,14.40
2017-07-18T01:48:12.485Z,14.40
2017-07-18T01:50:40.886Z,14.40
2017-07-18T01:53:09.289Z,14.40
2017-07-18T01:55:37.700Z,14.40
2017-07-18T01:58:05.757Z,14.30
2017-07-18T02:00:33.814Z,14.30
2017-07-18T02:03:02.261Z,14.30
2017-07-18T02:05:31.092Z,14.30
2017-07-18T02:07:59.489Z,14.30
2017-07-18T02:10:27.930Z,14.30
2017-07-18T02:12:56.334Z,14.20
2017-07-18T02:15:24.386Z,14.20
2017-07-18T02:17:52.805Z,14.20
2017-07-18T02:20:21.197Z,14.20
2017-07-18T02:22:49.606Z,14.10
2017-07-18T02:25:18.028Z,14.10
2017-07-18T02:27:46.439Z,14.10
2017-07-18T02:30:14.848Z,14.10
2017-07-18T02:32:43.374Z,14.10
2017-07-18T02:35:11.774Z,14.10
2017-07-18T02:37:40.183Z,14.00
2017-07-18T02:40:08.604Z,13.90
2017-07-18T02:42:37.022Z,13.90
2017-07-18T02:45:05.431Z,13.80
2017-07-18T02:47:33.857Z,13.80
2017-07-18T02:50:02.302Z,13.70
2017-07-18T02:52:31.381Z,13.60
2017-07-18T02:54:59.806Z,13.60
2017-07-18T02:57:28.216Z,13.40
2017-07-18T02:59:56.614Z,13.50
2017-07-18T03:02:25.039Z,13.50
2017-07-18T03:04:53.460Z,13.50
2017-07-18T03:07:21.870Z,13.50
2017-07-18T03:09:50.329Z,13.50
2017-07-18T03:12:18.725Z,13.50
2017-07-18T03:14:47.125Z,13.50
2017-07-18T03:17:15.565Z,13.40
2017-07-18T03:19:43.989Z,13.50
2017-07-18T03:22:12.402Z,13.50
2017-07-18T03:24:40.818Z,13.50
2017-07-18T03:27:09.225Z,13.50
2017-07-18T03:29:37.642Z,13.40
2017-07-18T03:32:06.070Z,13.40
2017-07-18T03:34:34.470Z,13.30
2017-07-18T03:37:03.665Z,13.30
2017-07-18T03:39:32.081Z,13.30
2017-07-18T03:42:00.491Z,13.30
2017-07-18T03:44:28.893Z,13.30
2017-07-18T03:46:57.322Z,13.20
2017-07-18T03:49:25.734Z,13.20
2017-07-18T03:51:54.132Z,13.20
2017-07-18T03:54:22.570Z,13.20
2017-07-18T03:56:50.979Z,13.10
2017-07-18T03:59:19.389Z,13.10
2017-07-18T04:01:47.808Z,13.10
2017-07-18T04:04:16.217Z,13.20
2017-07-18T04:06:44.619Z,13.10
2017-07-18T04:09:13.575Z,13.00
2017-07-18T04:11:41.989Z,13.10
2017-07-18T04:14:10.396Z,13.10
2017-07-18T04:16:38.823Z,13.10
2017-07-18T04:19:07.230Z,13.20
2017-07-18T04:21:35.641Z,13.20
2017-07-18T04:24:04.068Z,13.20
2017-07-18T04:26:32.494Z,13.20
2017-07-18T04:29:00.907Z,13.30
2017-07-18T04:31:29.333Z,13.30
2017-07-18T04:33:57.741Z,13.40
2017-07-18T04:36:26.150Z,13.40
2017-07-18T04:38:54.588Z,13.50
2017-07-18T04:41:25.088Z,13.60
2017-07-18T04:43:53.498Z,13.80
2017-07-18T04:46:21.930Z,13.90
2017-07-18T04:48:50.335Z,14.10
2017-07-18T04:51:18.766Z,14.40
2017-07-18T04:53:47.201Z,14.50
2017-07-18T04:56:15.623Z,14.60
2017-07-18T04:58:44.075Z,14.80
2017-07-18T05:01:12.511Z,15.00
2017-07-18T05:03:40.913Z,15.10
2017-07-18T05:06:09.354Z,15.30
2017-07-18T05:08:37.759Z,15.50
2017-07-18T05:11:06.214Z,15.60
2017-07-18T05:13:34.654Z,15.90
2017-07-18T05:16:03.089Z,16.10
2017-07-18T05:18:31.498Z,16.30
2017-07-18T05:20:59.934Z,16.30
2017-07-18T05:23:28.342Z,16.50
2017-07-18T05:25:56.737Z,16.60
2017-07-18T05:28:25.157Z,16.80
2017-07-18T05:30:53.588Z,16.90
2017-07-18T05:33:22.681Z,17.00
2017-07-18T05:35:51.107Z,17.30
2017-07-18T05:38:19.522Z,17.40
2017-07-18T05:40:47.941Z,17.60
2017-07-18T05:43:16.664Z,17.80
2017-07-18T05:45:45.074Z,18.00
2017-07-18T05:48:13.570Z,18.30
2017-07-18T05:50:42.066Z,18.70
2017-07-18T05:53:10.486Z,18.80
2017-07-18T05:55:38.897Z,18.70
2017-07-18T05:58:07.335Z,18.80
2017-07-18T06:00:35.766Z,18.80
2017-07-18T06:03:04.174Z,19.00
2017-07-18T06:05:32.602Z,19.30
2017-07-18T06:08:01.024Z,19.70
2017-07-18T06:10:29.426Z,20.10
2017-07-18T06:12:57.848Z,20.20
2017-07-18T06:15:26.256Z,20.30
2017-07-18T06:17:54.662Z,20.20
2017-07-18T06:20:23.147Z,20.40
2017-07-18T06:22:51.562Z,20.60
2017-07-18T06:25:19.972Z,20.60
2017-07-18T06:27:48.467Z,20.40
2017-07-18T06:30:17.634Z,19.90
2017-07-18T06:32:46.043Z,19.90
2017-07-18T06:35:14.471Z,19.90
2017-07-18T06:37:42.901Z,20.10
2017-07-18T06:40:11.309Z,20.70
2017-07-18T06:42:39.745Z,21.40
2017-07-18T06:45:08.169Z,22.40
2017-07-18T06:47:36.607Z,23.30
2017-07-18T06:50:05.044Z,24.00
2017-07-18T06:52:33.455Z,24.40
2017-07-18T06:55:01.879Z,24.70
2017-07-18T06:57:30.579Z,24.50
2017-07-18T06:59:58.991Z,24.50
2017-07-18T07:02:27.403Z,25.70
2017-07-18T07:04:55.849Z,27.10
2017-07-18T07:07:24.282Z,27.90
2017-07-18T07:09:52.966Z,27.70
2017-07-18T07:12:21.435Z,27.30
2017-07-18T07:14:49.846Z,26.50
2017-07-18T07:17:19.042Z,25.90
2017-07-18T07:19:47.526Z,25.90
2017-07-18T07:22:15.977Z,25.80
2017-07-18T07:24:44.406Z,26.50
2017-07-18T07:27:12.882Z,27.40
2017-07-18T07:29:41.309Z,27.90
2017-07-18T07:32:09.753Z,28.30
2017-07-18T07:34:38.210Z,29.30
2017-07-18T07:37:06.631Z,29.30
2017-07-18T07:39:35.065Z,30.20
2017-07-18T07:42:03.533Z,31.10
2017-07-18T07:44:31.974Z,32.30
2017-07-18T07:47:00.411Z,32.20
2017-07-18T07:49:28.910Z,31.90
2017-07-18T07:51:57.339Z,32.20
2017-07-18T07:54:25.755Z,34.00
2017-07-18T07:56:54.219Z,33.50
2017-07-18T07:59:22.662Z,33.70
2017-07-18T08:01:51.085Z,34.40
2017-07-18T08:04:19.517Z,34.60
2017-07-18T08:06:47.937Z,34.50
2017-07-18T08:09:16.388Z,33.60
2017-07-18T08:11:44.806Z,33.20
2017-07-18T08:14:13.248Z,33.20
2017-07-18T08:16:41.720Z,32.00
2017-07-18T08:19:10.143Z,31.90
2017-07-18T08:21:38.609Z,32.40
2017-07-18T08:24:07.074Z,32.30
2017-07-18T08:26:35.502Z,32.40
2017-07-18T08:29:03.937Z,33.20
2017-07-18T08:31:32.448Z,32.50
2017-07-18T08:34:00.906Z,32.20
2017-07-18T08:36:29.373Z,31.80
2017-07-18T08:38:57.831Z,31.80
2017-07-18T08:41:26.260Z,32.50
2017-07-18T08:43:54.707Z,32.80
2017-07-18T08:46:23.169Z,31.50
2017-07-18T08:48:51.610Z,31.70
2017-07-18T08:51:20.057Z,31.90
2017-07-18T08:53:48.549Z,31.80
2017-07-18T08:56:16.991Z,31.90
2017-07-18T08:58:45.453Z,31.80
2017-07-18T09:01:13.914Z,31.40
2017-07-18T09:03:42.362Z,32.00
2017-07-18T09:06:10.812Z,32.70
2017-07-18T09:08:39.257Z,32.80
2017-07-18T09:11:07.714Z,34.10
2017-07-18T09:13:36.919Z,34.30
2017-07-18T09:16:05.403Z,34.30
2017-07-18T09:18:33.864Z,34.10
2017-07-18T09:21:02.300Z,34.20
2017-07-18T09:23:30.776Z,34.00
2017-07-18T09:25:59.758Z,34.20
2017-07-18T09:28:28.192Z,34.00
2017-07-18T09:30:56.650Z,33.90
2017-07-18T09:33:25.091Z,33.10
2017-07-18T09:35:53.529Z,32.60
2017-07-18T09:38:21.955Z,31.80
2017-07-18T09:40:50.424Z,32.10
2017-07-18T09:43:19.642Z,33.40
2017-07-18T09:45:48.121Z,33.50
2017-07-18T09:48:16.603Z,34.50
2017-07-18T09:50:45.074Z,34.00
2017-07-18T09:53:13.549Z,33.60
2017-07-18T09:55:42.749Z,34.10
2017-07-18T09:58:11.170Z,34.10
2017-07-18T10:00:39.271Z,34.10
2017-07-18T10:03:07.719Z,34.30
2017-07-18T10:05:36.174Z,34.80
2017-07-18T10:08:04.795Z,34.90
2017-07-18T10:10:33.201Z,35.10
2017-07-18T10:13:01.638Z,36.00
2017-07-18T10:15:30.120Z,35.70
2017-07-18T10:17:58.557Z,36.30
2017-07-18T10:20:27.000Z,36.90
2017-07-18T10:22:55.476Z,36.40
2017-07-18T10:25:23.926Z,35.50
2017-07-18T10:27:52.365Z,36.10
2017-07-18T10:30:20.845Z,35.70
2017-07-18T10:32:49.273Z,35.40
2017-07-18T10:35:17.740Z,36.10
2017-07-18T10:37:46.215Z,36.70
2017-07-18T10:40:14.642Z,36.90
2017-07-18T10:42:43.092Z,37.20
2017-07-18T10:45:11.547Z,36.40
2017-07-18T10:47:40.128Z,35.70
2017-07-18T10:50:08.604Z,35.10
2017-07-18T10:52:36.761Z,35.70
2017-07-18T10:55:05.231Z,35.50
2017-07-18T10:57:33.659Z,35.20
2017-07-18T11:00:02.103Z,35.00
2017-07-18T11:02:30.553Z,34.60
2017-07-18T11:04:58.993Z,34.90
2017-07-18T11:07:27.443Z,34.90
2017-07-18T11:09:55.909Z,34.20
2017-07-18T11:12:24.331Z,33.90
2017-07-18T11:14:52.793Z,33.80
2017-07-18T11:17:21.228Z,33.10
2017-07-18T11:19:49.658Z,33.30
2017-07-18T11:22:18.078Z,33.40
2017-07-18T11:24:46.548Z,33.90
2017-07-18T11:27:14.962Z,34.20
2017-07-18T11:29:43.391Z,33.90
2017-07-18T11:32:11.853Z,33.70
2017-07-18T11:34:41.033Z,33.70
2017-07-18T11:37:09.452Z,33.70
2017-07-18T11:39:37.923Z,33.10
2017-07-18T11:42:06.346Z,33.00
2017-07-18T11:44:34.786Z,33.40
2017-07-18T11:47:03.613Z,32.90
2017-07-18T11:49:32.033Z,33.60
2017-07-18T11:52:00.448Z,33.60
2017-07-18T11:54:28.873Z,32.50
2017-07-18T11:56:57.314Z,32.60
2017-07-18T11:59:25.735Z,32.50
2017-07-18T12:01:54.198Z,32.50
2017-07-18T12:04:22.637Z,32.60
2017-07-18T12:06:51.091Z,32.50
2017-07-18T12:09:19.562Z,32.70
2017-07-18T12:11:48.044Z,33.00
2017-07-18T12:14:16.473Z,32.90
2017-07-18T12:16:44.915Z,32.60
2017-07-18T12:19:13.364Z,32.80
2017-07-18T12:21:41.805Z,32.60
2017-07-18T12:24:10.274Z,32.30
2017-07-18T12:26:38.698Z,32.10
2017-07-18T12:29:07.114Z,32.00
2017-07-18T12:31:35.583Z,32.00
2017-07-18T12:34:04.024Z,32.50
2017-07-18T12:36:32.450Z,32.50
2017-07-18T12:39:00.894Z,32.50
2017-07-18T12:41:29.326Z,32.00
2017-07-18T12:43:57.770Z,31.60
2017-07-18T12:46:26.251Z,31.50
2017-07-18T12:48:54.683Z,32.00
2017-07-18T12:51:23.110Z,32.30
2017-07-18T12:53:51.581Z,32.20
2017-07-18T12:56:20.002Z,31.90
2017-07-18T12:58:48.426Z,32.00
2017-07-18T13:01:16.887Z,32.00
2017-07-18T13:03:45.323Z,31.90
2017-07-18T13:06:13.766Z,31.80
2017-07-18T13:08:42.230Z,31.30
2017-07-18T13:11:10.669Z,31.40
2017-07-18T13:13:39.080Z,31.40
2017-07-18T13:16:07.510Z,31.10
2017-07-18T13:18:36.691Z,30.90
2017-07-18T13:21:05.105Z,30.80
2017-07-18T13:23:33.586Z,31.00
2017-07-18T13:26:02.022Z,31.40
2017-07-18T13:28:30.486Z,31.10
2017-07-18T13:30:58.927Z,31.20
2017-07-18T13:33:27.325Z,31.20
2017-07-18T13:35:55.729Z,31.20
2017-07-18T13:38:24.231Z,31.10
2017-07-18T13:40:52.629Z,31.20
2017-07-18T13:43:21.053Z,30.90
2017-07-18T13:45:49.600Z,31.20
2017-07-18T13:48:18.031Z,31.20
2017-07-18T13:50:46.474Z,31.10
2017-07-18T13:53:14.968Z,31.10
2017-07-18T13:55:43.389Z,31.10
2017-07-18T13:58:11.802Z,31.00
2017-07-18T14:00:40.239Z,31.20
2017-07-18T14:03:08.672Z,31.30
2017-07-18T14:05:37.117Z,31.40
2017-07-18T14:08:05.554Z,31.20
2017-07-18T14:10:33.956Z,31.40
2017-07-18T14:13:02.355Z,31.00
2017-07-18T14:15:31.556Z,30.60
2017-07-18T14:17:59.966Z,30.60
2017-07-18T14:20:28.374Z,30.50
2017-07-18T14:22:56.804Z,30.70
2017-07-18T14:25:25.232Z,30.60
2017-07-18T14:27:54.406Z,30.20
2017-07-18T14:30:22.834Z,30.10
2017-07-18T14:32:51.251Z,30.30
2017-07-18T14:35:19.669Z,30.50
2017-07-18T14:37:48.886Z,30.50
2017-07-18T14:40:17.302Z,30.40
2017-07-18T14:42:45.721Z,30.20
2017-07-18T14:45:14.974Z,30.40
2017-07-18T14:47:43.451Z,30.40
2017-07-18T14:50:11.881Z,30.00
2017-07-18T14:52:40.337Z,29.90
2017-07-18T14:55:08.745Z,30.00
2017-07-18T14:57:36.822Z,30.00
2017-07-18T15:00:04.915Z,30.10
2017-07-18T15:02:33.323Z,30.00
2017-07-18T15:05:01.735Z,29.90
2017-07-18T15:07:30.189Z,29.70
2017-07-18T15:09:58.598Z,29.70
2017-07-18T15:12:27.018Z,29.70
2017-07-18T15:14:55.456Z,29.80
2017-07-18T15:17:24.114Z,29.80
2017-07-18T15:19:52.523Z,29.70
2017-07-18T15:22:21.023Z,29.60
2017-07-18T15:24:50.240Z,28.30
2017-07-18T15:27:18.671Z,28.20
2017-07-18T15:29:47.294Z,28.00
2017-07-18T15:32:15.696Z,28.00
2017-07-18T15:34:44.098Z,28.00
2017-07-18T15:37:12.542Z,27.80
2017-07-18T15:39:40.942Z,27.70
2017-07-18T15:42:10.156Z,27.50
2017-07-18T15:44:38.606Z,27.50
2017-07-18T15:47:07.010Z,27.50
2017-07-18T15:49:35.456Z,27.30
2017-07-18T15:52:03.935Z,27.20
2017-07-18T15:54:32.366Z,27.10
2017-07-18T15:57:00.785Z,27.20
2017-07-18T15:59:29.235Z,27.20
2017-07-18T16:01:57.679Z,27.10
2017-07-18T16:04:26.121Z,27.30
2017-07-18T16:06:54.606Z,27.10
2017-07-18T16:09:23.058Z,27.10
2017-07-18T16:11:51.510Z,27.20
2017-07-18T16:14:19.960Z,27.20
2017-07-18T16:16:48.399Z,27.30
2017-07-18T16:19:16.822Z,27.20
2017-07-18T16:21:45.261Z,26.80
2017-07-18T16:24:13.673Z,26.70
2017-07-18T16:26:42.070Z,26.50
2017-07-18T16:29:10.531Z,26.20
2017-07-18T16:31:39.092Z,26.00
2017-07-18T16:34:07.526Z,26.00
2017-07-18T16:36:35.994Z,26.00
2017-07-18T16:39:03.526Z,25.90
2017-07-18T16:41:31.956Z,25.90
2017-07-18T16:44:00.398Z,25.60
2017-07-18T16:46:28.830Z,25.50
2017-07-18T16:48:57.338Z,25.30
2017-07-18T16:51:29.229Z,25.00
2017-07-18T16:53:57.650Z,24.80
2017-07-18T16:56:26.070Z,24.50
2017-07-18T16:58:54.538Z,24.30
2017-07-18T17:01:22.954Z,24.10
2017-07-18T17:03:51.369Z,24.00
2017-07-18T17:06:20.574Z,23.70
2017-07-18T17:08:49.020Z,23.60
2017-07-18T17:11:17.433Z,23.50
2017-07-18T17:13:45.907Z,23.40
2017-07-18T17:16:14.338Z,23.30
2017-07-18T17:18:42.758Z,23.10
2017-07-18T17:21:11.254Z,23.10
2017-07-18T17:23:42.993Z,22.90
2017-07-18T17:26:11.402Z,22.80
2017-07-18T17:28:40.598Z,22.80
2017-07-18T17:31:09.002Z,22.70
2017-07-18T17:33:37.411Z,22.70
2017-07-18T17:36:05.850Z,22.70
2017-07-18T17:38:34.266Z,22.60
2017-07-18T17:41:02.716Z,22.60
2017-07-18T17:43:31.186Z,22.50
2017-07-18T17:45:59.601Z,22.50
2017-07-18T17:48:28.021Z,22.30
2017-07-18T17:50:56.510Z,22.20
2017-07-18T17:53:24.957Z,22.10
2017-07-18T17:55:53.370Z,22.00
2017-07-18T17:58:21.817Z,21.80
2017-07-18T18:00:50.346Z,21.60
2017-07-18T18:03:18.986Z,21.50
2017-07-18T18:05:47.459Z,21.40
2017-07-18T18:08:15.941Z,21.30
2017-07-18T18:10:44.423Z,21.20
2017-07-18T18:13:12.844Z,21.00
2017-07-18T18:15:41.274Z,21.00
2017-07-18T18:18:09.726Z,20.90
2017-07-18T18:20:38.165Z,20.80
2017-07-18T18:23:06.561Z,20.80
2017-07-18T18:25:34.953Z,20.70
2017-07-18T18:28:03.409Z,20.60
2017-07-18T18:30:31.860Z,20.60
2017-07-18T18:33:00.288Z,20.60
2017-07-18T18:35:28.805Z,20.40
2017-07-18T18:37:57.981Z,20.10
2017-07-18T18:40:26.387Z,20.10
2017-07-18T18:42:54.800Z,20.00
2017-07-18T18:45:23.202Z,20.00
2017-07-18T18:47:51.605Z,19.90
2017-07-18T18:50:20.034Z,19.80
2017-07-18T18:52:48.439Z,19.70
2017-07-18T18:55:16.841Z,19.60
2017-07-18T18:57:45.354Z,19.40
2017-07-18T19:00:13.749Z,19.40
2017-07-18T19:02:42.205Z,19.30
2017-07-18T19:05:10.632Z,19.30
2017-07-18T19:07:39.035Z,19.30
2017-07-18T19:10:07.439Z,19.20
2017-07-18T19:12:35.861Z,19.10
2017-07-18T19:15:04.280Z,19.10
2017-07-18T19:17:32.699Z,19.00
2017-07-18T19:20:01.446Z,19.00
2017-07-18T19:22:32.302Z,18.80
2017-07-18T19:25:00.784Z,18.80
2017-07-18T19:27:29.213Z,18.70
2017-07-18T19:29:58.324Z,18.70
2017-07-18T19:32:26.769Z,18.60
2017-07-18T19:34:55.245Z,18.60
2017-07-18T19:37:23.695Z,18.60
2017-07-18T19:39:52.118Z,18.50
2017-07-18T19:42:20.572Z,18.40
2017-07-18T19:44:48.985Z,18.40
2017-07-18T19:47:17.396Z,18.40
2017-07-18T19:49:45.821Z,18.30
2017-07-18T19:52:14.226Z,18.30
2017-07-18T19:54:42.658Z,18.30
2017-07-18T19:57:11.110Z,18.30
2017-07-18T19:59:39.541Z,18.30
2017-07-18T20:02:07.945Z,18.20
2017-07-18T20:04:36.416Z,18.20
2017-07-18T20:07:06.422Z,18.20
2017-07-18T20:09:34.828Z,18.10
2017-07-18T20:12:03.247Z,18.00
2017-07-18T20:14:31.748Z,18.10
2017-07-18T20:17:00.198Z,18.10
2017-07-18T20:19:28.682Z,18.10
2017-07-18T20:21:57.099Z,18.10
2017-07-18T20:24:25.534Z,18.10
2017-07-18T20:26:53.957Z,18.00
2017-07-18T20:29:22.357Z,18.10
2017-07-18T20:31:51.614Z,18.00
2017-07-18T20:34:20.303Z,18.00
2017-07-18T20:36:48.809Z,17.90
2017-07-18T20:39:17.284Z,17.80
2017-07-18T20:41:46.696Z,17.60
2017-07-18T20:44:15.106Z,17.60
2017-07-18T20:46:44.293Z,17.50
2017-07-18T20:49:12.717Z,17.40
2017-07-18T20:51:41.185Z,17.30
2017-07-18T20:54:09.595Z,17.30
2017-07-18T20:56:38.042Z,17.30
2017-07-18T20:59:06.445Z,17.20
2017-07-18T21:01:34.860Z,17.10
2017-07-18T21:04:03.305Z,17.00
2017-07-18T21:06:31.711Z,16.90
2017-07-18T21:09:00.121Z,16.90
2017-07-18T21:11:28.550Z,16.80
2017-07-18T21:13:56.952Z,16.70
2017-07-18T21:16:25.986Z,16.80
2017-07-18T21:18:54.613Z,16.80
2017-07-18T21:21:23.017Z,16.70
2017-07-18T21:23:51.431Z,16.70
2017-07-18T21:26:19.873Z,16.60
2017-07-18T21:28:48.293Z,16.60
2017-07-18T21:31:16.689Z,16.60
2017-07-18T21:33:45.113Z,16.50
2017-07-18T21:36:13.538Z,16.40
2017-07-18T21:38:41.946Z,16.40
2017-07-18T21:41:10.378Z,16.30
2017-07-18T21:43:38.779Z,16.30
2017-07-18T21:46:07.188Z,16.20
2017-07-18T21:48:35.618Z,16.10
2017-07-18T21:51:04.021Z,16.00
2017-07-18T21:53:32.422Z,16.00
2017-07-18T21:56:00.855Z,16.00
2017-07-18T21:58:29.262Z,16.00
2017-07-18T22:00:57.665Z,15.90
2017-07-18T22:03:26.084Z,15.90
2017-07-18T22:05:54.493Z,15.90
2017-07-18T22:08:22.897Z,15.90
2017-07-18T22:10:51.373Z,15.80
2017-07-18T22:13:19.781Z,15.80
2017-07-18T22:15:48.191Z,15.70
2017-07-18T22:18:16.617Z,15.70
2017-07-18T22:20:45.022Z,15.60
2017-07-18T22:23:13.421Z,15.60
2017-07-18T22:25:41.857Z,15.50
2017-07-18T22:28:10.257Z,15.50
2017-07-18T22:30:39.425Z,15.50
2017-07-18T22:33:07.853Z,15.40
2017-07-18T22:35:41.323Z,15.40
2017-07-18T22:38:09.739Z,15.50
2017-07-18T22:40:38.177Z,15.50
2017-07-18T22:43:06.581Z,15.40
2017-07-18T22:45:35.760Z,15.30
2017-07-18T22:48:03.869Z,15.30
2017-07-18T22:50:32.274Z,15.40
2017-07-18T22:53:00.677Z,15.40
2017-07-18T22:55:29.101Z,15.40
2017-07-18T22:57:58.265Z,15.30
2017-07-18T23:00:26.673Z,15.30
2017-07-18T23:02:55.097Z,15.30
2017-07-18T23:05:23.509Z,15.40
2017-07-18T23:07:51.909Z,15.40
2017-07-18T23:10:21.188Z,15.30
2017-07-18T23:12:49.580Z,15.30
2017-07-18T23:15:17.987Z,15.30
2017-07-18T23:17:46.421Z,15.30
2017-07-18T23:20:14.821Z,15.20
2017-07-18T23:22:43.221Z,15.20
2017-07-18T23:25:11.660Z,15.20
2017-07-18T23:27:40.066Z,15.30
2017-07-18T23:30:08.475Z,15.30
2017-07-18T23:32:36.965Z,15.40
2017-07-18T23:35:05.416Z,15.40
2017-07-18T23:37:33.837Z,15.40
2017-07-18T23:40:02.274Z,15.40
2017-07-18T23:42:30.675Z,15.40
2017-07-18T23:44:59.077Z,15.50
2017-07-18T23:47:27.517Z,15.50
2017-07-18T23:49:55.931Z,15.50
2017-07-18T23:52:24.342Z,15.50
2017-07-18T23:54:52.937Z,15.50
2017-07-18T23:57:21.341Z,15.60
2017-07-18T23:59:49.762Z,15.60
